Rotterdam, New York
Current Conditions -  °F | °C
As of 10:51 PM on Sunday 23 Nov 2014 (Local Time) from KALB Reporting Station
Overcast Overcast  
Wind Chill: 50°   Ceiling: 21000
Heat Index: 50°   Visibility: 10mi
Dew Point: 27°   Wind: 9mph
Humidity: 41%   Direction: 170°S
Pressure: 30"   Gusts: NA
Location:  42.8133°N, 74.0348°W
Report Text: KALB 240351Z 17008KT 10SM FEW090 OVC210 10/M03 A3000 RMK AO2 SLP160 T01001028
Loading
Personal Weather Stations






























Interactive Weather Map New forecast layout! Learn more

10-Day Weather Forecast

Advertisements
Track Severe Weather on mobile